createdAt,value
2022-09-06T00:02:31.702Z,14.37
2022-09-06T00:05:13.207Z,14.26
2022-09-06T00:08:48.855Z,14.17
2022-09-06T00:11:44.999Z,14.10
2022-09-06T00:14:43.541Z,14.07
2022-09-06T00:17:49.405Z,14.02
2022-09-06T00:21:06.048Z,13.95
2022-09-06T00:24:06.298Z,13.90
2022-09-06T00:27:02.548Z,13.84
2022-09-06T00:29:42.109Z,13.75
2022-09-06T00:32:31.425Z,13.71
2022-09-06T00:35:32.763Z,13.66
2022-09-06T00:38:53.980Z,13.60
2022-09-06T00:41:47.952Z,13.50
2022-09-06T00:44:46.853Z,13.39
2022-09-06T00:47:51.777Z,13.35
2022-09-06T00:51:09.041Z,13.29
2022-09-06T00:54:23.864Z,13.29
2022-09-06T00:57:33.859Z,13.21
2022-09-06T01:00:55.294Z,13.17
2022-09-06T01:03:43.047Z,13.14
2022-09-06T01:06:29.753Z,13.16
2022-09-06T01:10:01.959Z,13.15
2022-09-06T01:13:16.706Z,13.15
2022-09-06T01:17:07.287Z,13.15
2022-09-06T01:20:36.109Z,13.11
2022-09-06T01:24:01.492Z,13.05
2022-09-06T01:27:10.512Z,12.97
2022-09-06T01:30:06.647Z,12.91
2022-09-06T01:33:34.941Z,12.87
2022-09-06T01:36:15.663Z,12.85
2022-09-06T01:39:22.796Z,12.88
2022-09-06T01:42:48.113Z,12.88
2022-09-06T01:46:18.793Z,12.86
2022-09-06T01:49:44.719Z,12.88
2022-09-06T01:52:56.728Z,12.88
2022-09-06T01:56:02.361Z,12.89
2022-09-06T01:59:06.658Z,12.89
2022-09-06T02:02:35.349Z,12.87
2022-09-06T02:06:01.024Z,12.81
2022-09-06T02:09:07.297Z,12.78
2022-09-06T02:12:05.003Z,12.77
2022-09-06T02:15:16.089Z,12.74
2022-09-06T02:18:08.755Z,12.70
2022-09-06T02:21:31.023Z,12.70
2022-09-06T02:24:45.723Z,12.71
2022-09-06T02:27:54.458Z,12.71
2022-09-06T02:30:29.603Z,12.67
2022-09-06T02:33:32.865Z,12.65
2022-09-06T02:37:02.256Z,12.66
2022-09-06T02:40:08.242Z,12.67
2022-09-06T02:42:53.967Z,12.64
2022-09-06T02:45:59.451Z,12.62
2022-09-06T02:49:06.070Z,12.59
2022-09-06T02:52:10.289Z,12.61
2022-09-06T02:54:41.917Z,12.60
2022-09-06T02:57:21.895Z,12.60
2022-09-06T02:59:59.077Z,12.62
2022-09-06T03:02:30.981Z,12.57
2022-09-06T03:05:09.137Z,12.58
2022-09-06T03:07:47.021Z,12.61
2022-09-06T03:10:24.696Z,12.62
2022-09-06T03:13:06.777Z,12.60
2022-09-06T03:15:42.848Z,12.56
2022-09-06T03:18:19.347Z,12.53
2022-09-06T03:21:15.361Z,12.45
2022-09-06T03:23:55.115Z,12.38
2022-09-06T03:26:48.419Z,12.35
2022-09-06T03:29:23.047Z,12.31
2022-09-06T03:32:17.857Z,12.31
2022-09-06T03:35:02.775Z,12.27
2022-09-06T03:37:38.885Z,12.23
2022-09-06T03:40:11.353Z,12.16
2022-09-06T03:42:48.418Z,12.11
2022-09-06T03:45:43.842Z,12.06
2022-09-06T03:48:12.909Z,11.99
2022-09-06T03:50:59.443Z,11.96
2022-09-06T03:53:37.824Z,11.94
2022-09-06T03:56:21.813Z,11.95
2022-09-06T03:58:57.706Z,11.96
2022-09-06T04:01:31.238Z,11.93
2022-09-06T04:04:10.460Z,11.91
2022-09-06T04:06:52.450Z,11.89
2022-09-06T04:09:33.685Z,11.83
2022-09-06T04:12:35.239Z,11.82
2022-09-06T04:16:00.870Z,11.84
2022-09-06T04:18:53.534Z,11.82
2022-09-06T04:21:43.515Z,11.82
2022-09-06T04:24:33.681Z,11.81
2022-09-06T04:27:39.415Z,11.82
2022-09-06T04:30:24.787Z,11.80
2022-09-06T04:33:07.925Z,11.84
2022-09-06T04:36:22.713Z,11.83
2022-09-06T04:39:11.021Z,11.83
2022-09-06T04:42:01.920Z,11.81
2022-09-06T04:44:57.016Z,11.79
2022-09-06T04:47:36.523Z,11.80
2022-09-06T04:50:32.065Z,11.79
2022-09-06T04:53:11.806Z,11.78
2022-09-06T04:56:10.994Z,11.78
2022-09-06T04:59:08.441Z,11.75
2022-09-06T05:01:55.235Z,11.77
2022-09-06T05:04:36.853Z,11.81
2022-09-06T05:07:33.760Z,11.84
2022-09-06T05:10:24.839Z,11.86
2022-09-06T05:13:16.666Z,11.81
2022-09-06T05:15:54.291Z,11.77
2022-09-06T05:18:49.507Z,11.80
2022-09-06T05:21:55.283Z,11.84
2022-09-06T05:24:44.530Z,11.89
2022-09-06T05:27:43.840Z,11.85
2022-09-06T05:30:26.078Z,11.78
2022-09-06T05:33:04.408Z,11.64
2022-09-06T05:35:32.666Z,11.61
2022-09-06T05:38:01.163Z,11.64
2022-09-06T05:40:29.764Z,11.63
2022-09-06T05:43:00.325Z,11.68
2022-09-06T05:45:31.084Z,11.71
2022-09-06T05:47:59.282Z,11.73
2022-09-06T05:50:39.394Z,11.76
2022-09-06T05:53:10.821Z,11.75
2022-09-06T05:55:42.880Z,11.72
2022-09-06T05:58:11.482Z,11.75
2022-09-06T06:00:51.554Z,11.84
2022-09-06T06:03:26.025Z,11.90
2022-09-06T06:06:13.052Z,11.93
2022-09-06T06:09:39.106Z,11.94
2022-09-06T06:12:55.115Z,11.99
2022-09-06T06:16:11.725Z,12.08
2022-09-06T06:19:15.064Z,11.99
2022-09-06T06:21:58.800Z,11.96
2022-09-06T06:24:32.947Z,11.94
2022-09-06T06:27:49.967Z,11.93
2022-09-06T06:30:21.872Z,12.10
2022-09-06T06:33:03.954Z,12.29
2022-09-06T06:36:17.225Z,12.48
2022-09-06T06:39:09.763Z,12.86
2022-09-06T06:42:11.035Z,13.21
2022-09-06T06:45:18.445Z,13.44
2022-09-06T06:48:00.708Z,13.53
2022-09-06T06:51:51.422Z,13.73
2022-09-06T06:54:37.813Z,13.90
2022-09-06T06:57:13.541Z,14.00
2022-09-06T06:59:49.196Z,14.02
2022-09-06T07:03:08.658Z,13.88
2022-09-06T07:06:16.676Z,13.84
2022-09-06T07:09:12.614Z,13.92
2022-09-06T07:12:04.149Z,14.02
2022-09-06T07:14:44.153Z,14.12
2022-09-06T07:17:40.086Z,14.14
2022-09-06T07:24:08.151Z,14.12
2022-09-06T07:30:39.831Z,14.00
2022-09-06T07:33:26.104Z,14.04
2022-09-06T07:36:03.746Z,14.07
2022-09-06T07:38:56.773Z,14.12
2022-09-06T07:41:33.525Z,14.17
2022-09-06T07:44:43.836Z,14.19
2022-09-06T07:47:57.114Z,14.20
2022-09-06T07:50:58.919Z,14.21
2022-09-06T07:54:29.925Z,14.16
2022-09-06T07:57:25.736Z,14.19
2022-09-06T08:00:10.182Z,14.21
2022-09-06T08:02:52.994Z,14.27
2022-09-06T08:09:04.432Z,14.31
2022-09-06T08:12:11.529Z,14.26
2022-09-06T08:14:41.024Z,14.22
2022-09-06T08:17:36.940Z,14.23
2022-09-06T08:20:20.486Z,14.24
2022-09-06T08:22:49.749Z,14.24
2022-09-06T08:25:26.198Z,14.27
2022-09-06T08:28:07.405Z,14.27
2022-09-06T08:31:30.002Z,14.32
2022-09-06T08:34:26.863Z,14.47
2022-09-06T08:37:12.572Z,14.62
2022-09-06T08:40:09.702Z,14.81
2022-09-06T08:43:23.803Z,15.07
2022-09-06T08:46:22.992Z,15.30
2022-09-06T08:49:04.598Z,15.46
2022-09-06T08:51:58.872Z,15.53
2022-09-06T08:55:03.078Z,15.58
2022-09-06T08:57:59.089Z,15.75
2022-09-06T09:05:07.498Z,16.33
2022-09-06T09:08:07.562Z,16.66
2022-09-06T09:11:04.340Z,16.82
2022-09-06T09:14:19.956Z,16.71
2022-09-06T09:17:39.013Z,17.05
2022-09-06T09:20:12.849Z,17.21
2022-09-06T09:22:52.990Z,17.35
2022-09-06T09:25:35.585Z,17.62
2022-09-06T09:28:28.377Z,17.95
2022-09-06T09:31:12.576Z,18.27
2022-09-06T09:33:42.017Z,18.23
2022-09-06T09:40:38.171Z,18.19
2022-09-06T09:43:27.262Z,18.36
2022-09-06T09:46:30.409Z,18.64
2022-09-06T09:49:23.244Z,18.86
2022-09-06T09:52:41.489Z,18.92
2022-09-06T09:55:47.801Z,19.18
2022-09-06T09:58:39.844Z,19.41
2022-09-06T10:01:33.877Z,19.64
2022-09-06T10:04:45.677Z,19.82
2022-09-06T10:07:31.212Z,19.87
2022-09-06T10:11:18.547Z,19.97
2022-09-06T10:14:30.884Z,19.98
2022-09-06T10:17:42.194Z,20.17
2022-09-06T10:20:57.912Z,20.16
2022-09-06T10:24:27.996Z,19.99
2022-09-06T10:27:33.875Z,20.00
2022-09-06T10:30:32.302Z,20.03
2022-09-06T10:33:49.096Z,19.90
2022-09-06T10:37:08.720Z,19.79
2022-09-06T10:40:12.049Z,19.83
2022-09-06T10:43:26.845Z,19.63
2022-09-06T10:46:12.179Z,19.51
2022-09-06T10:49:00.246Z,19.62
2022-09-06T10:52:20.060Z,19.75
2022-09-06T10:55:19.083Z,19.83
2022-09-06T11:01:53.944Z,19.89
2022-09-06T11:08:51.202Z,19.51
2022-09-06T11:12:21.750Z,19.50
2022-09-06T11:15:55.872Z,19.41
2022-09-06T11:19:24.770Z,19.38
2022-09-06T11:22:46.866Z,19.37
2022-09-06T11:25:51.896Z,19.46
2022-09-06T11:29:01.130Z,19.52
2022-09-06T11:34:41.231Z,19.55
2022-09-06T11:37:32.488Z,19.62
2022-09-06T11:40:51.003Z,19.63
2022-09-06T11:44:02.465Z,19.65
2022-09-06T11:46:45.168Z,19.60
2022-09-06T11:49:50.082Z,19.63
2022-09-06T11:53:21.793Z,19.56
2022-09-06T11:56:22.423Z,19.49
2022-09-06T11:59:24.410Z,19.51
2022-09-06T12:02:13.987Z,19.57
2022-09-06T12:05:40.327Z,19.52
2022-09-06T12:08:46.837Z,19.43
2022-09-06T12:11:51.703Z,19.41
2022-09-06T12:15:02.834Z,19.38
2022-09-06T12:17:55.861Z,19.26
2022-09-06T12:21:09.952Z,19.27
2022-09-06T12:24:22.033Z,19.23
2022-09-06T12:27:28.591Z,19.24
2022-09-06T12:31:04.937Z,19.27
2022-09-06T12:33:48.362Z,19.33
2022-09-06T12:36:55.496Z,19.35
2022-09-06T12:39:59.326Z,19.42
2022-09-06T12:42:43.360Z,19.47
2022-09-06T12:45:32.017Z,19.52
2022-09-06T12:48:34.892Z,19.60
2022-09-06T12:51:26.995Z,19.72
2022-09-06T12:54:33.101Z,19.79
2022-09-06T12:57:42.022Z,19.90
2022-09-06T13:00:21.823Z,20.00
2022-09-06T13:04:12.480Z,20.07
2022-09-06T13:06:57.090Z,20.49
2022-09-06T13:09:54.216Z,20.75
2022-09-06T13:12:48.465Z,20.83
2022-09-06T13:16:01.306Z,20.95
2022-09-06T13:18:51.792Z,20.91
2022-09-06T13:21:45.836Z,20.87
2022-09-06T13:25:17.545Z,20.88
2022-09-06T13:28:07.160Z,21.24
2022-09-06T13:30:55.335Z,21.54
2022-09-06T13:33:46.996Z,21.93
2022-09-06T13:36:52.655Z,22.35
2022-09-06T13:39:46.998Z,22.58
2022-09-06T13:42:49.551Z,22.78
2022-09-06T13:45:46.019Z,22.73
2022-09-06T13:48:49.017Z,22.35
2022-09-06T13:51:43.093Z,21.82
2022-09-06T13:54:56.427Z,21.44
2022-09-06T13:57:55.601Z,21.13
2022-09-06T14:01:14.348Z,21.02
2022-09-06T14:04:11.608Z,20.97
2022-09-06T14:10:14.939Z,20.74
2022-09-06T14:13:07.967Z,20.74
2022-09-06T14:16:37.953Z,20.64
2022-09-06T14:19:32.021Z,20.59
2022-09-06T14:22:51.829Z,20.58
2022-09-06T14:26:01.665Z,20.44
2022-09-06T14:28:47.451Z,20.45
2022-09-06T14:31:35.744Z,20.57
2022-09-06T14:34:26.116Z,20.66
2022-09-06T14:37:43.295Z,20.82
2022-09-06T14:40:47.088Z,20.90
2022-09-06T14:44:06.724Z,20.86
2022-09-06T14:47:05.419Z,20.68
2022-09-06T14:50:14.521Z,20.60
2022-09-06T14:53:24.136Z,20.60
2022-09-06T14:56:38.108Z,20.55
2022-09-06T14:59:22.799Z,20.46
2022-09-06T15:02:20.194Z,20.43
2022-09-06T15:05:24.176Z,20.37
2022-09-06T15:08:16.981Z,20.25
2022-09-06T15:11:34.778Z,20.19
2022-09-06T15:14:57.618Z,20.13
2022-09-06T15:17:51.343Z,20.12
2022-09-06T15:21:08.328Z,20.08
2022-09-06T15:23:58.457Z,20.07
2022-09-06T15:26:45.053Z,20.00
2022-09-06T15:29:51.408Z,19.97
2022-09-06T15:32:41.318Z,19.94
2022-09-06T15:35:54.208Z,19.90
2022-09-06T15:39:00.255Z,19.84
2022-09-06T15:42:00.274Z,19.81
2022-09-06T15:44:39.962Z,19.76
2022-09-06T15:47:09.368Z,19.71
2022-09-06T15:49:45.230Z,19.73
2022-09-06T15:52:24.780Z,19.77
2022-09-06T15:55:44.101Z,19.80
2022-09-06T15:58:48.216Z,19.84
2022-09-06T16:01:35.105Z,19.84
2022-09-06T16:04:34.228Z,19.80
2022-09-06T16:11:12.917Z,19.82
2022-09-06T16:38:37.170Z,19.44
2022-09-06T16:41:37.140Z,19.35
2022-09-06T16:44:11.565Z,19.30
2022-09-06T16:46:59.080Z,19.21
2022-09-06T16:49:32.507Z,19.19
2022-09-06T16:52:04.901Z,19.16
2022-09-06T16:54:58.537Z,19.15
2022-09-06T16:58:10.201Z,19.15
2022-09-06T17:01:03.088Z,19.11
2022-09-06T17:03:50.063Z,19.05
2022-09-06T17:14:45.580Z,18.98
2022-09-06T17:17:15.052Z,18.98
2022-09-06T17:20:04.392Z,18.96
2022-09-06T17:22:33.375Z,18.95
2022-09-06T17:25:12.650Z,18.94
2022-09-06T17:27:44.655Z,18.90
2022-09-06T17:30:12.962Z,18.87
2022-09-06T17:32:41.670Z,18.87
2022-09-06T17:35:13.030Z,18.85
2022-09-06T17:37:41.625Z,18.80
2022-09-06T17:40:10.544Z,18.76
2022-09-06T17:43:05.933Z,18.67
2022-09-06T17:46:01.169Z,18.56
2022-09-06T17:49:06.240Z,18.45
2022-09-06T17:51:50.356Z,18.38
2022-09-06T17:54:40.308Z,18.30
2022-09-06T17:57:11.421Z,18.21
2022-09-06T17:59:39.912Z,18.16
2022-09-06T18:02:14.637Z,18.09
2022-09-06T18:04:43.611Z,18.01
2022-09-06T18:07:12.231Z,17.97
2022-09-06T18:09:48.001Z,17.90
2022-09-06T18:12:17.709Z,17.86
2022-09-06T18:14:49.593Z,17.79
2022-09-06T18:17:27.207Z,17.74
2022-09-06T18:19:55.921Z,17.70
2022-09-06T18:23:29.581Z,17.70
2022-09-06T18:26:01.653Z,17.67
2022-09-06T18:28:31.873Z,17.63
2022-09-06T18:31:29.521Z,17.62
2022-09-06T18:34:17.350Z,17.58
2022-09-06T18:36:46.216Z,17.52
2022-09-06T18:39:15.111Z,17.48
2022-09-06T18:42:13.395Z,17.47
2022-09-06T18:44:48.094Z,17.42
2022-09-06T18:47:37.334Z,17.39
2022-09-06T18:50:12.737Z,17.36
2022-09-06T18:53:22.641Z,17.34
2022-09-06T18:55:54.761Z,17.33
2022-09-06T18:58:32.818Z,17.33
2022-09-06T19:01:11.658Z,17.31
2022-09-06T19:03:47.191Z,17.25
2022-09-06T19:06:43.133Z,17.19
2022-09-06T19:09:56.967Z,17.16
2022-09-06T19:12:33.411Z,17.13
2022-09-06T19:15:12.882Z,17.10
2022-09-06T19:17:52.660Z,17.10
2022-09-06T19:21:19.387Z,17.08
2022-09-06T19:24:01.181Z,17.06
2022-09-06T19:26:46.951Z,17.04
2022-09-06T19:29:28.379Z,16.99
2022-09-06T19:32:02.423Z,16.95
2022-09-06T19:34:44.100Z,16.90
2022-09-06T19:37:19.495Z,16.87
2022-09-06T19:40:11.919Z,16.84
2022-09-06T19:42:49.045Z,16.79
2022-09-06T19:45:21.637Z,16.75
2022-09-06T19:48:01.306Z,16.75
2022-09-06T19:50:38.561Z,16.72
2022-09-06T19:53:31.515Z,16.67
2022-09-06T19:56:13.521Z,16.64
2022-09-06T19:58:47.883Z,16.60
2022-09-06T20:01:18.290Z,16.54
2022-09-06T20:04:00.127Z,16.49
2022-09-06T20:06:37.349Z,16.46
2022-09-06T20:09:41.327Z,16.41
2022-09-06T20:12:12.665Z,16.33
2022-09-06T20:15:08.434Z,16.30
2022-09-06T20:17:58.448Z,16.24
2022-09-06T20:20:37.503Z,16.19
2022-09-06T20:23:14.955Z,16.14
2022-09-06T20:26:06.404Z,16.10
2022-09-06T20:29:34.674Z,16.01
2022-09-06T20:32:18.881Z,15.94
2022-09-06T20:34:51.046Z,15.92
2022-09-06T20:37:25.387Z,15.91
2022-09-06T20:40:14.921Z,15.92
2022-09-06T20:43:06.396Z,15.94
2022-09-06T20:45:35.472Z,15.92
2022-09-06T20:51:47.520Z,15.90
2022-09-06T22:03:40.608Z,14.90
2022-09-06T22:06:26.012Z,14.84
2022-09-06T22:08:58.854Z,14.81
2022-09-06T22:11:38.335Z,14.77
2022-09-06T22:14:32.594Z,14.72
2022-09-06T22:17:33.180Z,14.68
2022-09-06T22:20:43.951Z,14.61
2022-09-06T22:23:45.328Z,14.57
2022-09-06T22:26:49.014Z,14.53
2022-09-06T22:29:46.620Z,14.51
2022-09-06T22:32:27.546Z,14.44
2022-09-06T22:35:31.804Z,14.40
2022-09-06T22:39:05.344Z,14.32
2022-09-06T22:42:19.027Z,14.27
2022-09-06T22:46:09.616Z,14.20
2022-09-06T22:49:11.437Z,14.15
2022-09-06T22:51:40.635Z,14.13
2022-09-06T22:54:11.894Z,14.15
2022-09-06T22:56:44.302Z,14.11
2022-09-06T22:59:16.276Z,14.10
2022-09-06T23:02:48.389Z,14.12
2022-09-06T23:06:32.436Z,14.10
2022-09-06T23:09:35.331Z,14.07
2022-09-06T23:12:30.088Z,14.05
2022-09-06T23:15:05.470Z,14.01
2022-09-06T23:17:37.707Z,13.98
2022-09-06T23:20:14.479Z,13.98
2022-09-06T23:22:43.147Z,13.94
2022-09-06T23:25:14.620Z,13.94
2022-09-06T23:27:43.172Z,13.93
2022-09-06T23:30:15.192Z,13.91
2022-09-06T23:32:46.410Z,13.87
2022-09-06T23:35:15.542Z,13.86
2022-09-06T23:37:55.000Z,13.84
2022-09-06T23:40:23.633Z,13.85
2022-09-06T23:42:58.064Z,13.85
2022-09-06T23:45:52.410Z,13.83
2022-09-06T23:48:21.319Z,13.82
2022-09-06T23:51:01.248Z,13.80
2022-09-06T23:53:29.993Z,13.79
2022-09-06T23:56:32.755Z,13.77
2022-09-06T23:59:08.933Z,13.74
